Weather at Charlottetown Airport

Public forecast

Using degrees Celsius for public forecast. Weather courtesy of forecast.io.

Current aviation weather report (METAR) for Charlottetown Airport

Retrieved 2022/06/27 12:00 UTC (6 minutes ago):

CYYG 271200Z 18013KT 15SM FEW075 BKN110 19/16 A3000 RMK ACC2AC4 SLP160 DENSITY ALT 600FT

Aviation forecast (TAF) for Charlottetown Airport

Retrieved 2022/06/27 12:42 UTC (0 seconds ago):

TAF CYYG 271140Z 2712/2724 18012G22KT P6SM FEW006 SCT080 BKN100 TEMPO 2712/2714 BKN006 FM272300 22012G22KT P6SM BKN070 OVC120 RMK NXT FCST BY 271800Z